Time;durP1;ratioP1;P1;durP2;ratioP2;P2;SDS_P1;SDS_P2;PMS_P1;PMS_P2;Temp;Humidity;BMP_temperature;BMP_pressure;BME280_temperature;BME280_humidity;BME280_pressure;Samples;Min_cycle;Max_cycle;Signal;HPM_P1;HPM_P2
2023/12/16 00:00:38;;;;;;;11.70;7.55;;;7.90;99.90;;;8.17;96.53;102945.91;4876484;28;24450;-66
2023/12/16 00:03:00;;;;;;;14.63;8.45;;;7.90;99.90;;;8.17;96.13;102950.22;4868295;28;24497;-66
2023/12/16 00:05:22;;;;;;;13.27;8.10;;;7.90;99.90;;;8.08;96.42;102943.50;4875638;28;25019;-64
2023/12/16 00:07:45;;;;;;;13.70;8.40;;;7.90;99.90;;;8.03;96.95;102944.53;4875211;28;25188;-66
2023/12/16 00:10:09;;;;;;;12.88;7.93;;;7.80;99.90;;;7.98;96.79;102943.78;4867238;28;24451;-65
2023/12/16 00:12:31;;;;;;;12.10;7.63;;;7.80;99.90;;;7.80;97.45;102937.28;4857559;28;24423;-66
2023/12/16 00:14:54;;;;;;;12.73;8.45;;;7.70;99.90;;;7.73;97.21;102928.78;4869394;28;24571;-65
2023/12/16 00:17:16;;;;;;;14.50;9.00;;;7.60;99.90;;;7.68;97.90;102945.38;4871098;28;24965;-65
2023/12/16 00:19:37;;;;;;;13.60;8.65;;;7.50;99.90;;;7.66;98.25;102955.81;4873078;28;24450;-65
2023/12/16 00:22:00;;;;;;;12.80;8.18;;;7.50;99.90;;;7.66;98.77;102952.34;4874385;28;24832;-66
2023/12/16 00:24:22;;;;;;;16.08;8.65;;;7.50;99.90;;;7.63;98.83;102957.59;4860418;28;25043;-65
2023/12/16 00:26:44;;;;;;;13.60;8.80;;;7.40;99.90;;;7.63;99.06;102953.28;4869611;28;24463;-66
2023/12/16 00:29:06;;;;;;;13.27;8.38;;;7.40;99.90;;;7.54;99.22;102956.06;4876012;28;24543;-66
2023/12/16 00:31:28;;;;;;;13.88;8.40;;;7.40;99.90;;;7.51;99.75;102955.28;4875136;28;24477;-66
2023/12/16 00:33:50;;;;;;;13.95;8.50;;;7.30;99.90;;;7.48;99.74;102965.75;4878137;28;24426;-66
2023/12/16 00:36:13;;;;;;;15.55;9.10;;;7.30;99.90;;;7.43;99.50;102971.03;4874923;28;24515;-65
2023/12/16 00:38:35;;;;;;;16.38;8.90;;;7.30;99.90;;;7.43;99.41;102971.03;4875551;28;25039;-66
2023/12/16 00:40:57;;;;;;;14.52;8.85;;;7.20;99.90;;;7.45;99.49;102968.44;4875193;28;24507;-65
2023/12/16 00:43:20;;;;;;;13.45;9.10;;;7.20;99.90;;;7.47;99.77;102971.84;4875975;28;24430;-66
2023/12/16 00:45:42;;;;;;;13.63;8.60;;;7.30;99.90;;;7.46;99.60;102973.59;4872878;28;24506;-65
2023/12/16 00:48:04;;;;;;;12.25;8.40;;;7.30;99.90;;;7.48;100.00;102971.81;4875817;28;24450;-65
2023/12/16 00:50:26;;;;;;;14.98;9.30;;;7.30;99.90;;;7.47;99.73;102975.31;4875161;28;24512;-65
2023/12/16 00:52:48;;;;;;;15.70;9.00;;;7.30;99.90;;;7.46;100.00;102972.72;4875102;28;24816;-66
2023/12/16 00:55:10;;;;;;;13.40;8.50;;;7.30;99.90;;;7.44;98.92;102975.34;4875931;28;24514;-66
2023/12/16 00:57:32;;;;;;;13.65;8.55;;;7.30;99.90;;;7.44;99.53;102975.34;4875419;28;24431;-66
2023/12/16 00:59:54;;;;;;;12.60;8.70;;;7.20;99.90;;;7.40;99.17;102963.31;4874638;28;24515;-65
2023/12/16 01:02:17;;;;;;;14.50;8.60;;;7.20;99.90;;;7.38;98.87;102972.03;4875759;28;24518;-65
2023/12/16 01:04:38;;;;;;;13.60;8.60;;;7.20;99.90;;;7.36;99.02;102972.09;4876084;28;24587;-66
2023/12/16 01:07:02;;;;;;;14.82;9.10;;;7.20;99.90;;;7.38;99.45;102978.09;4875307;28;24848;-66
2023/12/16 01:09:24;;;;;;;16.73;9.18;;;7.10;99.90;;;7.37;99.21;102973.78;4875386;28;24487;-65
2023/12/16 01:11:46;;;;;;;14.20;8.60;;;7.10;99.90;;;7.39;99.83;102969.41;4874465;28;24428;-65
2023/12/16 01:14:08;;;;;;;12.00;8.20;;;7.20;99.90;;;7.37;98.80;102965.97;4875322;28;24428;-66
2023/12/16 01:16:30;;;;;;;13.45;8.30;;;7.20;99.90;;;7.34;99.58;102971.25;4878635;28;24866;-66
2023/12/16 01:18:52;;;;;;;12.90;8.20;;;7.10;99.90;;;7.34;99.45;102970.41;4857968;28;25011;-66
2023/12/16 01:21:17;;;;;;;14.07;8.68;;;7.10;99.90;;;7.36;99.96;102968.63;4874985;28;24453;-65
2023/12/16 01:23:38;;;;;;;12.35;8.20;;;7.20;99.90;;;7.36;99.84;102971.22;4877296;28;24431;-66
2023/12/16 01:26:01;;;;;;;13.10;8.40;;;7.20;99.90;;;7.34;100.00;102968.66;4875259;28;24427;-66
2023/12/16 01:28:23;;;;;;;12.00;7.95;;;7.10;99.90;;;7.37;100.00;102965.97;4880594;28;24483;-65
2023/12/16 01:30:45;;;;;;;11.52;7.75;;;7.20;99.90;;;7.37;100.00;102973.78;4874080;28;24514;-65
2023/12/16 01:33:07;;;;;;;12.37;8.37;;;7.20;99.90;;;7.35;100.00;102974.69;4874855;28;24435;-66
2023/12/16 01:35:29;;;;;;;13.18;8.43;;;7.20;99.90;;;7.33;100.00;102977.31;4855268;28;24894;-66
2023/12/16 01:37:51;;;;;;;15.88;8.65;;;7.10;99.90;;;7.34;100.00;102979.06;4874856;28;24514;-65
2023/12/16 01:40:13;;;;;;;12.93;8.10;;;7.10;99.90;;;7.33;100.00;102977.31;4876900;28;24519;-66
2023/12/16 01:42:35;;;;;;;12.57;8.13;;;7.10;99.90;;;7.31;99.80;102984.31;4874403;28;24468;-64
2023/12/16 01:44:58;;;;;;;12.65;7.90;;;7.10;99.90;;;7.30;99.84;102982.59;4874900;28;24423;-65
2023/12/16 01:47:20;;;;;;;13.30;7.72;;;7.10;99.90;;;7.31;100.00;102989.50;4875324;28;24991;-66
2023/12/16 01:49:42;;;;;;;12.30;8.00;;;7.10;99.90;;;7.32;100.00;103004.22;4876289;28;24459;-66
2023/12/16 01:52:06;;;;;;;12.82;8.00;;;7.10;99.90;;;7.31;100.00;102999.03;4856196;28;24443;-66
2023/12/16 01:54:28;;;;;;;14.20;8.10;;;7.10;99.90;;;7.32;100.00;102991.22;4873630;28;24989;-66
2023/12/16 01:56:59;;;;;;;13.50;7.60;;;7.10;99.90;;;7.33;100.00;103003.31;4874744;28;24523;-66
2023/12/16 01:59:21;;;;;;;13.40;8.30;;;7.10;99.90;;;7.37;100.00;103010.13;4874638;28;25018;-66
2023/12/16 02:01:43;;;;;;;12.25;8.35;;;7.10;99.90;;;7.39;100.00;103005.75;4860002;28;25004;-66
2023/12/16 02:04:06;;;;;;;12.05;8.00;;;7.20;99.90;;;7.43;100.00;103010.00;4874399;28;25188;-66
2023/12/16 02:06:28;;;;;;;12.02;7.75;;;7.20;99.90;;;7.40;100.00;102999.69;4874773;28;24983;-65
2023/12/16 02:08:50;;;;;;;13.82;7.82;;;7.20;99.90;;;7.42;100.00;103000.53;4874540;28;24483;-66
2023/12/16 02:11:12;;;;;;;12.23;8.10;;;7.20;99.90;;;7.47;100.00;103001.28;4874194;28;24430;-65
2023/12/16 02:13:34;;;;;;;12.60;8.00;;;7.20;99.90;;;7.48;100.00;103005.56;4874007;28;24837;-66
2023/12/16 02:15:56;;;;;;;12.68;7.78;;;7.30;99.90;;;7.47;100.00;103006.47;4874563;28;24507;-66
2023/12/16 02:18:18;;;;;;;11.85;7.85;;;7.30;99.90;;;7.51;100.00;103010.72;4875282;28;24433;-66
2023/12/16 02:20:40;;;;;;;12.93;7.93;;;7.30;99.90;;;7.52;100.00;103007.22;4873712;28;24848;-66
2023/12/16 02:23:02;;;;;;;13.02;8.40;;;7.30;99.90;;;7.52;99.97;102999.41;4873611;28;24473;-66
2023/12/16 02:25:24;;;;;;;11.53;7.60;;;7.30;99.90;;;7.57;100.00;102992.38;4856728;28;24500;-65
2023/12/16 02:27:46;;;;;;;12.38;7.47;;;7.30;99.90;;;7.57;99.79;103002.78;4874329;28;24439;-66
2023/12/16 02:30:09;;;;;;;10.38;7.03;;;7.40;99.90;;;7.61;99.90;103003.56;4873634;28;24482;-66
2023/12/16 02:32:31;;;;;;;11.50;7.00;;;7.40;99.90;;;7.61;100.00;103009.63;4875259;28;24424;-66
2023/12/16 02:34:53;;;;;;;11.13;7.70;;;7.40;99.90;;;7.62;100.00;103011.31;4874175;28;24431;-66
2023/12/16 02:37:15;;;;;;;12.63;7.90;;;7.40;99.90;;;7.63;100.00;103018.22;4874295;28;24552;-66
2023/12/16 02:39:37;;;;;;;9.20;6.93;;;7.40;99.90;;;7.59;100.00;103016.59;4877923;28;24518;-66
2023/12/16 02:41:59;;;;;;;12.52;7.20;;;7.40;99.90;;;7.55;98.84;103009.75;4876753;28;24552;-66
2023/12/16 02:44:21;;;;;;;11.20;7.40;;;7.40;99.90;;;7.52;99.28;103025.41;4885038;28;24489;-66
2023/12/16 02:46:43;;;;;;;11.35;7.30;;;7.30;99.90;;;7.52;99.78;103022.81;4871326;28;24985;-65
2023/12/16 02:49:05;;;;;;;13.73;7.40;;;7.30;99.90;;;7.53;100.00;103024.53;4877945;28;24682;-65
2023/12/16 02:51:29;;;;;;;12.32;8.23;;;7.30;99.90;;;7.54;99.95;103031.41;4877280;28;24482;-66
2023/12/16 02:53:51;;;;;;;13.23;7.88;;;7.30;99.90;;;7.58;99.45;103034.81;4877640;28;24473;-66
2023/12/16 02:56:13;;;;;;;12.73;7.88;;;7.30;99.90;;;7.59;99.39;103037.38;4880046;28;24994;-66
2023/12/16 02:58:35;;;;;;;12.45;7.65;;;7.40;99.90;;;7.61;99.56;103029.53;4859879;28;24941;-66
2023/12/16 03:00:59;;;;;;;12.82;7.47;;;7.40;99.90;;;7.57;99.53;103028.75;4877221;28;24429;-66
2023/12/16 03:03:21;;;;;;;11.90;7.70;;;7.40;99.90;;;7.56;99.08;103034.84;4878611;28;24491;-66
2023/12/16 03:05:43;;;;;;;11.13;7.60;;;7.40;99.90;;;7.58;99.66;103037.44;4869691;28;24451;-65
2023/12/16 03:08:05;;;;;;;15.45;8.20;;;7.40;99.90;;;7.60;100.00;103038.25;4876912;28;25053;-66
2023/12/16 03:10:27;;;;;;;12.70;8.20;;;7.40;99.90;;;7.61;99.74;103030.41;4876943;28;24447;-65
2023/12/16 03:12:49;;;;;;;14.68;9.18;;;7.40;99.90;;;7.64;99.24;103045.09;4877261;28;24427;-66
2023/12/16 03:15:11;;;;;;;14.10;8.23;;;7.40;99.90;;;7.64;98.91;103027.75;4880653;28;25007;-66
2023/12/16 03:17:33;;;;;;;14.27;8.85;;;7.40;99.90;;;7.62;98.83;103031.28;4877594;28;24501;-65
2023/12/16 03:19:55;;;;;;;15.52;9.90;;;7.40;99.90;;;7.55;99.62;103033.16;4877105;28;24489;-65
2023/12/16 03:22:17;;;;;;;18.50;10.45;;;7.30;99.90;;;7.53;99.38;103028.88;4877257;28;24454;-66
2023/12/16 03:24:39;;;;;;;18.67;10.85;;;7.30;99.90;;;7.52;100.00;103028.00;4877392;28;24508;-65
2023/12/16 03:27:01;;;;;;;19.10;11.60;;;7.30;99.90;;;7.35;100.00;103032.69;4881917;28;24870;-66
2023/12/16 03:29:23;;;;;;;20.35;12.00;;;7.20;99.90;;;7.40;100.00;103025.66;4859480;28;24458;-65
2023/12/16 03:31:45;;;;;;;24.55;12.82;;;7.20;99.90;;;7.39;100.00;103023.13;4858593;28;24935;-66
2023/12/16 03:34:07;;;;;;;22.58;13.15;;;7.20;99.90;;;7.38;100.00;103019.66;4877155;28;24481;-65
2023/12/16 03:36:29;;;;;;;21.63;12.88;;;7.20;99.90;;;7.37;100.00;103012.72;4877086;28;24423;-66
2023/12/16 03:38:52;;;;;;;23.85;13.60;;;7.20;99.90;;;7.35;100.00;103011.91;4878877;28;24523;-65
2023/12/16 03:41:14;;;;;;;22.10;12.75;;;7.20;99.90;;;7.35;100.00;103009.31;4876792;28;24485;-66
2023/12/16 03:43:36;;;;;;;22.20;12.65;;;7.20;99.90;;;7.27;100.00;103013.81;4876834;28;24852;-66
2023/12/16 03:45:58;;;;;;;20.75;12.05;;;7.10;99.90;;;7.21;100.00;103007.91;4876766;28;24868;-66
2023/12/16 03:48:20;;;;;;;19.95;11.85;;;7.10;99.90;;;7.19;100.00;103007.94;4879994;28;24979;-66
2023/12/16 03:50:43;;;;;;;20.88;11.43;;;7.00;99.90;;;7.20;100.00;103008.81;4885482;28;24550;-64
2023/12/16 03:53:05;;;;;;;20.00;11.23;;;7.00;99.90;;;7.19;100.00;103007.94;4881824;28;24429;-66
2023/12/16 03:55:26;;;;;;;17.13;10.23;;;7.00;99.90;;;7.17;100.00;103011.44;4876471;28;24872;-66
2023/12/16 03:57:48;;;;;;;17.20;10.05;;;7.00;99.90;;;7.13;100.00;103005.47;4876611;28;24423;-66
2023/12/16 04:00:11;;;;;;;15.18;9.30;;;7.00;99.90;;;7.07;100.00;103018.53;4869555;28;25148;-66
2023/12/16 04:02:33;;;;;;;14.93;9.02;;;6.90;99.90;;;6.99;100.00;103016.13;4875678;28;24556;-66
2023/12/16 04:04:55;;;;;;;16.35;8.90;;;6.90;99.90;;;6.98;100.00;103016.97;4875343;28;24518;-66
2023/12/16 04:07:17;;;;;;;13.48;8.30;;;6.80;99.90;;;6.98;100.00;103021.34;4871534;28;25475;-66
2023/12/16 04:09:40;;;;;;;15.27;8.50;;;6.80;99.90;;;6.98;100.00;103014.38;4871095;28;24454;-66
2023/12/16 04:12:02;;;;;;;11.33;7.50;;;6.80;99.90;;;6.98;100.00;103013.56;4877947;28;25002;-66
2023/12/16 04:14:24;;;;;;;13.02;7.70;;;6.80;99.90;;;6.98;100.00;103010.97;4872997;28;25090;-66
2023/12/16 04:16:46;;;;;;;12.52;7.82;;;6.80;99.90;;;6.98;100.00;103016.97;4875683;28;25006;-65
2023/12/16 04:19:09;;;;;;;11.45;7.20;;;6.80;99.90;;;6.92;100.00;103014.50;4875956;28;24427;-66
2023/12/16 04:21:32;;;;;;;13.03;7.53;;;6.80;99.90;;;6.91;100.00;103015.41;4870819;28;24632;-66
2023/12/16 04:23:54;;;;;;;11.27;7.32;;;6.80;99.90;;;6.87;100.00;103018.09;4870629;28;24866;-65
2023/12/16 04:26:16;;;;;;;13.00;7.60;;;6.70;99.90;;;6.80;100.00;103019.09;4867439;28;24975;-66
2023/12/16 04:28:38;;;;;;;12.90;7.60;;;6.70;99.90;;;6.80;100.00;103019.94;4874371;28;24837;-66
2023/12/16 04:31:00;;;;;;;12.90;7.50;;;6.60;99.90;;;6.81;100.00;103021.66;4866687;28;24517;-66
2023/12/16 04:33:22;;;;;;;13.25;7.72;;;6.60;99.90;;;6.83;100.00;103019.91;4875172;28;24424;-66
2023/12/16 04:35:44;;;;;;;10.65;7.18;;;6.70;99.90;;;6.70;100.00;103025.34;4870904;28;21181;-66
2023/12/16 04:38:06;;;;;;;11.85;7.40;;;6.60;99.90;;;6.68;100.00;103017.59;4872954;28;24450;-66
2023/12/16 04:40:28;;;;;;;10.57;7.03;;;6.60;99.90;;;6.71;100.00;103021.84;4874194;28;24434;-66
2023/12/16 04:42:50;;;;;;;11.88;7.57;;;6.60;99.90;;;6.73;100.00;103022.69;4872352;28;24443;-66
2023/12/16 04:45:12;;;;;;;12.70;7.60;;;6.60;99.90;;;6.77;100.00;103016.56;4873705;28;25026;-66
2023/12/16 04:47:37;;;;;;;11.55;7.30;;;6.60;99.90;;;6.81;100.00;103023.41;4875574;28;24434;-66
2023/12/16 04:49:59;;;;;;;11.15;6.55;;;6.60;99.90;;;6.82;100.00;103020.78;4874381;28;24544;-66
2023/12/16 04:52:21;;;;;;;10.65;6.97;;;6.70;99.90;;;6.80;100.00;103021.69;4863973;28;24438;-65
2023/12/16 04:54:44;;;;;;;12.38;7.10;;;6.70;99.90;;;6.80;100.00;103021.69;4866647;28;24496;-66
2023/12/16 04:57:06;;;;;;;11.27;7.10;;;6.60;99.90;;;6.76;100.00;103020.88;4876277;28;24424;-65
2023/12/16 04:59:28;;;;;;;10.17;6.87;;;6.60;99.90;;;6.73;100.00;103020.09;4875245;28;20856;-66
2023/12/16 05:01:50;;;;;;;10.93;7.20;;;6.60;99.90;;;6.71;100.00;103019.25;4865903;28;24427;-66
2023/12/16 05:04:12;;;;;;;10.77;6.80;;;6.60;99.90;;;6.68;100.00;103019.31;4875924;28;24427;-66
2023/12/16 05:06:34;;;;;;;10.80;6.70;;;6.50;99.90;;;6.69;100.00;103021.00;4875367;28;24489;-66
2023/12/16 05:08:56;;;;;;;11.55;7.00;;;6.50;99.90;;;6.65;100.00;103014.16;4874087;28;24447;-66
2023/12/16 05:11:18;;;;;;;11.98;6.90;;;6.50;99.90;;;6.68;100.00;103019.31;4874594;28;24491;-67
2023/12/16 05:13:40;;;;;;;10.40;6.70;;;6.50;99.90;;;6.66;100.00;103023.69;4874501;28;24424;-66
2023/12/16 05:16:02;;;;;;;11.52;6.60;;;6.50;99.90;;;6.62;100.00;103027.22;4866070;28;25058;-66
2023/12/16 05:18:24;;;;;;;9.25;6.30;;;6.50;99.90;;;6.56;100.00;103032.50;4879914;28;24428;-66
2023/12/16 05:20:46;;;;;;;12.68;7.03;;;6.40;99.90;;;6.51;100.00;103031.72;4873424;28;24434;-66
2023/12/16 05:23:08;;;;;;;11.02;7.00;;;6.40;99.90;;;6.52;100.00;103036.88;4874645;28;24540;-65
2023/12/16 05:25:30;;;;;;;10.45;6.85;;;6.30;99.90;;;6.56;100.00;103035.09;4865622;28;24820;-65
2023/12/16 05:27:53;;;;;;;10.70;6.57;;;6.40;99.90;;;6.56;100.00;103037.69;4878913;28;24439;-66
2023/12/16 05:30:15;;;;;;;10.32;6.90;;;6.40;99.90;;;6.56;100.00;103042.88;4870404;28;24458;-65
2023/12/16 05:32:37;;;;;;;9.68;6.70;;;6.40;99.90;;;6.58;100.00;103035.94;4874096;28;24436;-66
2023/12/16 05:34:59;;;;;;;11.85;6.90;;;6.40;99.90;;;6.58;100.00;103041.13;4874164;28;24431;-65
2023/12/16 05:37:21;;;;;;;10.43;6.40;;;6.40;99.90;;;6.52;100.00;103026.50;4873124;28;24449;-66
2023/12/16 05:39:43;;;;;;;9.40;6.25;;;6.40;99.90;;;6.44;100.00;103027.50;4873639;28;24435;-66
2023/12/16 05:42:05;;;;;;;10.98;6.82;;;6.30;99.90;;;6.34;100.00;103032.03;4873856;28;24833;-65
2023/12/16 05:44:27;;;;;;;10.43;6.40;;;6.30;99.90;;;6.22;100.00;103040.84;4872743;28;24427;-66
2023/12/16 05:46:49;;;;;;;10.77;6.50;;;6.20;99.90;;;6.23;100.00;103034.78;4874793;28;25012;-66
2023/12/16 05:49:11;;;;;;;10.07;6.60;;;6.10;99.90;;;6.23;100.00;103042.56;4873429;28;24510;-66
2023/12/16 05:51:40;;;;;;;12.38;6.90;;;6.10;99.90;;;6.24;100.00;103040.81;4871956;28;24529;-66
2023/12/16 05:54:02;;;;;;;10.00;6.65;;;6.10;99.90;;;6.27;100.00;103043.34;4871723;28;25046;-66
2023/12/16 05:56:24;;;;;;;11.00;6.80;;;6.10;99.90;;;6.32;100.00;103051.94;4873528;28;20867;-65
2023/12/16 05:58:46;;;;;;;13.35;6.90;;;6.10;99.90;;;6.38;100.00;103044.03;4874199;28;24432;-65
2023/12/16 06:01:08;;;;;;;11.48;7.00;;;6.20;99.90;;;6.42;100.00;103044.84;4871299;28;24443;-66
2023/12/16 06:03:30;;;;;;;10.90;6.60;;;6.20;99.90;;;6.46;100.00;103056.88;4878369;28;24431;-66
2023/12/16 06:05:52;;;;;;;9.52;6.25;;;6.30;99.90;;;6.44;100.00;103054.31;4871464;28;25035;-66
2023/12/16 06:08:15;;;;;;;11.18;6.78;;;6.30;99.90;;;6.44;100.00;103058.63;4873366;28;25045;-66
2023/12/16 06:10:37;;;;;;;9.43;6.30;;;6.30;99.90;;;6.43;100.00;103062.13;4871338;28;24469;-66
2023/12/16 06:12:59;;;;;;;9.05;6.10;;;6.30;99.90;;;6.43;100.00;103062.13;4872740;28;24470;-66
2023/12/16 06:15:21;;;;;;;9.95;6.50;;;6.30;99.90;;;6.44;100.00;103062.09;4869937;28;24538;-66
2023/12/16 06:17:42;;;;;;;9.35;6.43;;;6.30;99.90;;;6.32;100.00;103071.81;4869421;28;24530;-67
2023/12/16 06:20:06;;;;;;;9.68;5.90;;;6.30;99.90;;;6.34;100.00;103072.66;4871909;28;24799;-66
2023/12/16 06:22:28;;;;;;;10.68;6.70;;;6.20;99.90;;;6.22;100.00;103071.94;4872470;28;20771;-66
2023/12/16 06:24:50;;;;;;;12.37;7.17;;;6.20;99.90;;;6.20;100.00;103073.72;4872768;28;24447;-66
2023/12/16 06:27:12;;;;;;;12.13;7.10;;;6.10;99.90;;;6.25;100.00;103068.47;4869528;28;24442;-66
2023/12/16 06:29:34;;;;;;;14.70;7.05;;;6.10;99.90;;;6.29;100.00;103070.13;4870625;28;24451;-66
2023/12/16 06:31:56;;;;;;;12.00;7.70;;;6.10;99.90;;;6.30;100.00;103065.78;4871638;28;25024;-65
2023/12/16 06:34:18;;;;;;;9.98;6.57;;;6.10;99.90;;;6.34;100.00;103073.50;4876559;28;24990;-66
2023/12/16 06:36:40;;;;;;;9.43;6.50;;;6.10;99.90;;;6.37;100.00;103070.00;4873576;28;24501;-66
2023/12/16 06:39:03;;;;;;;10.23;6.90;;;6.10;99.90;;;6.38;100.00;103063.94;4873760;28;24433;-66
2023/12/16 06:41:25;;;;;;;11.85;6.90;;;6.20;99.90;;;6.40;100.00;103062.16;4868788;28;24486;-66
2023/12/16 06:43:47;;;;;;;9.88;6.70;;;6.20;99.90;;;6.38;100.00;103069.13;4873600;28;25031;-66
2023/12/16 06:46:09;;;;;;;9.18;6.38;;;6.20;99.90;;;6.42;100.00;103066.44;4874582;28;24521;-66
2023/12/16 06:48:31;;;;;;;10.00;6.38;;;6.20;99.90;;;6.39;100.00;103066.50;4874210;28;24462;-66
2023/12/16 06:50:57;;;;;;;11.63;7.13;;;6.20;99.90;;;6.38;100.00;103079.50;4870484;28;24503;-65
2023/12/16 06:53:19;;;;;;;10.50;6.75;;;6.20;99.90;;;6.36;100.00;103081.25;4873002;28;24419;-66
2023/12/16 06:55:41;;;;;;;11.27;6.50;;;6.20;99.90;;;6.37;100.00;103083.81;4873153;28;24509;-66
2023/12/16 06:58:04;;;;;;;11.60;6.90;;;6.20;99.90;;;6.42;100.00;103088.94;4871357;28;24436;-65
2023/12/16 07:00:26;;;;;;;11.55;6.90;;;6.20;99.90;;;6.45;100.00;103081.13;4872225;28;25019;-66
2023/12/16 07:02:48;;;;;;;10.97;6.70;;;6.20;99.90;;;6.42;100.00;103089.78;4870600;28;24624;-66
2023/12/16 07:05:11;;;;;;;9.80;6.70;;;6.30;99.90;;;6.39;100.00;103099.38;4874168;28;24435;-66
2023/12/16 07:07:33;;;;;;;9.15;6.30;;;6.20;99.90;;;6.38;100.00;103101.09;4870782;28;21129;-65
2023/12/16 07:09:55;;;;;;;10.10;5.93;;;6.20;99.90;;;6.29;100.00;103096.03;4873396;28;24897;-65
2023/12/16 07:12:17;;;;;;;9.20;6.10;;;6.20;99.90;;;6.31;100.00;103101.19;4873323;28;24424;-66
2023/12/16 07:14:39;;;;;;;12.85;7.18;;;6.10;99.90;;;6.23;100.00;103104.78;4867465;28;24526;-66
2023/12/16 07:17:01;;;;;;;10.57;6.50;;;6.10;99.90;;;6.27;100.00;103100.41;4860824;28;24964;-66
2023/12/16 07:19:23;;;;;;;12.70;6.93;;;6.10;99.90;;;6.21;100.00;103097.91;4872797;28;24534;-66
2023/12/16 07:21:45;;;;;;;12.77;6.70;;;6.10;99.90;;;6.24;100.00;103097.84;4864029;28;24454;-67
2023/12/16 07:24:07;;;;;;;11.35;6.90;;;6.10;99.90;;;6.28;100.00;103105.56;4874915;28;24968;-66
2023/12/16 07:26:29;;;;;;;11.02;7.25;;;6.10;99.90;;;6.29;100.00;103101.22;4873464;28;24538;-66
2023/12/16 07:28:51;;;;;;;12.02;7.15;;;6.10;99.90;;;6.35;100.00;103100.28;4871927;28;25072;-65
2023/12/16 07:31:13;;;;;;;11.70;7.50;;;6.10;99.90;;;6.40;100.00;103103.66;4871140;28;24450;-66
2023/12/16 07:33:38;;;;;;;11.40;7.30;;;6.20;99.90;;;6.46;100.00;103107.03;4874131;28;24443;-73
2023/12/16 07:36:00;;;;;;;10.27;6.43;;;6.20;99.90;;;6.48;100.00;103109.56;4856421;28;25019;-66
2023/12/16 07:38:23;;;;;;;10.77;6.13;;;6.30;99.90;;;6.46;100.00;103113.94;4876420;28;24991;-66
2023/12/16 07:40:45;;;;;;;8.50;5.55;;;6.30;99.90;;;6.44;99.83;103115.69;4873536;28;24535;-65
2023/12/16 07:43:06;;;;;;;8.07;5.72;;;6.30;99.90;;;6.38;100.00;103113.22;4876888;28;24531;-66
2023/12/16 07:45:29;;;;;;;10.48;5.82;;;6.30;99.90;;;6.37;100.00;103109.75;4875885;28;24551;-65
2023/12/16 07:47:51;;;;;;;12.70;6.30;;;6.20;99.90;;;6.44;100.00;103115.69;4874104;28;24673;-65
2023/12/16 07:50:16;;;;;;;13.80;6.57;;;6.20;99.90;;;6.46;100.00;103107.03;4875333;28;24456;-66
2023/12/16 07:52:38;;;;;;;8.40;5.90;;;6.30;99.90;;;6.52;99.82;103112.09;4858835;28;24531;-66
2023/12/16 07:55:00;;;;;;;10.45;6.25;;;6.30;99.90;;;6.57;100.00;103117.22;4876014;28;24448;-65
2023/12/16 07:57:22;;;;;;;11.07;6.20;;;6.30;99.90;;;6.48;100.00;103110.44;4875028;28;24797;-66
2023/12/16 07:59:46;;;;;;;10.05;6.30;;;6.40;99.90;;;6.54;100.00;103112.09;4874184;28;20817;-66
2023/12/16 08:02:10;;;;;;;10.00;6.30;;;6.30;99.90;;;6.58;99.19;103118.94;4876811;28;20778;-66
2023/12/16 08:04:32;;;;;;;9.82;6.20;;;6.40;99.90;;;6.65;99.54;103121.41;4875321;28;21320;-66
2023/12/16 08:06:54;;;;;;;11.07;6.90;;;6.40;99.90;;;6.72;99.61;103124.75;4873786;28;24443;-66
2023/12/16 08:09:16;;;;;;;11.45;6.07;;;6.40;99.90;;;6.78;98.69;103122.06;4875148;28;24437;-66
2023/12/16 08:11:38;;;;;;;10.73;6.40;;;6.50;99.90;;;6.79;97.78;103129.81;4872991;28;24546;-66
2023/12/16 08:14:00;;;;;;;11.20;6.10;;;6.60;99.90;;;6.81;97.33;103124.63;4876703;28;20854;-65
2023/12/16 08:16:22;;;;;;;7.97;5.70;;;6.60;99.90;;;6.86;96.36;103127.97;4852356;28;24556;-66
2023/12/16 08:18:45;;;;;;;8.57;5.90;;;6.60;99.90;;;6.86;95.32;103128.84;4871680;28;25046;-65
2023/12/16 08:21:07;;;;;;;13.10;6.72;;;6.70;99.90;;;6.87;95.73;103129.69;4874257;28;24522;-66
2023/12/16 08:23:29;;;;;;;9.50;6.18;;;6.70;99.90;;;6.87;96.14;103129.69;4871768;28;24867;-66
2023/12/16 08:25:51;;;;;;;10.90;6.70;;;6.70;99.90;;;6.82;96.39;103139.28;4870677;28;24446;-66
2023/12/16 08:28:13;;;;;;;10.57;6.28;;;6.60;99.90;;;6.84;96.06;103142.72;4873337;28;24450;-68
2023/12/16 08:30:35;;;;;;;10.68;6.22;;;6.60;99.90;;;6.91;95.15;103139.13;4872652;28;24505;-66
2023/12/16 08:32:57;;;;;;;12.00;6.40;;;6.70;99.90;;;6.89;96.11;103148.69;4875213;28;20771;-69
2023/12/16 08:35:19;;;;;;;11.70;6.20;;;6.70;99.90;;;6.88;94.36;103147.81;4857477;28;24435;-68
2023/12/16 08:37:41;;;;;;;12.32;7.00;;;6.70;99.90;;;6.96;94.97;103145.13;4873857;28;24534;-69
2023/12/16 08:40:04;;;;;;;11.30;6.82;;;6.70;99.90;;;7.05;94.01;103163.09;4878586;28;25736;-65
2023/12/16 08:42:26;;;;;;;11.20;6.50;;;6.80;99.90;;;7.11;94.68;103165.63;4868399;28;24443;-68
2023/12/16 08:44:48;;;;;;;8.77;6.35;;;6.80;99.90;;;7.11;94.08;103165.63;4861265;28;24466;-68
2023/12/16 08:47:10;;;;;;;10.27;5.78;;;6.90;99.90;;;7.16;93.75;103171.56;4874571;28;24439;-67
2023/12/16 08:49:32;;;;;;;11.00;6.20;;;6.90;99.90;;;7.24;93.92;103172.28;4871254;28;25450;-65
2023/12/16 08:51:58;;;;;;;12.50;6.13;;;6.90;99.90;;;7.32;93.54;103175.63;4874888;28;25124;-67
2023/12/16 08:54:20;;;;;;;11.35;6.63;;;7.00;99.90;;;7.39;93.54;103182.41;4875794;28;24424;-65
2023/12/16 08:56:43;;;;;;;8.90;6.03;;;7.10;99.90;;;7.44;91.87;103190.97;4869762;28;24486;-67
2023/12/16 08:59:05;;;;;;;8.02;5.95;;;7.20;99.90;;;7.49;92.54;103185.69;4873128;28;21336;-67
2023/12/16 09:01:27;;;;;;;9.07;5.60;;;7.20;99.90;;;7.56;91.19;103193.34;4872759;28;24530;-67
2023/12/16 09:03:49;;;;;;;9.45;6.13;;;7.20;99.90;;;7.56;90.49;103192.50;4866530;28;24431;-69
2023/12/16 09:06:11;;;;;;;9.85;5.95;;;7.30;99.90;;;7.58;90.30;103196.75;4871923;28;25067;-67
2023/12/16 09:08:34;;;;;;;9.55;5.75;;;7.30;99.90;;;7.61;90.21;103201.03;4876039;28;24449;-67
2023/12/16 09:10:55;;;;;;;8.48;5.57;;;7.30;99.90;;;7.67;89.81;103200.91;4873927;28;24454;-68
2023/12/16 09:13:17;;;;;;;8.53;5.63;;;7.40;99.90;;;7.72;89.66;103204.31;4875460;28;24473;-66
2023/12/16 09:15:39;;;;;;;10.18;5.80;;;7.40;99.90;;;7.77;89.49;103210.28;4867931;28;24551;-65
2023/12/16 09:18:01;;;;;;;10.23;6.18;;;7.40;99.90;;;7.82;90.47;103206.69;4869826;28;24951;-63
2023/12/16 09:20:23;;;;;;;8.05;5.10;;;7.50;99.90;;;7.91;89.27;103209.97;4863132;28;24853;-64
2023/12/16 09:22:45;;;;;;;9.73;5.50;;;7.60;99.90;;;7.97;89.31;103212.44;4873813;28;24423;-66
2023/12/16 09:25:08;;;;;;;10.05;5.80;;;7.60;99.90;;;7.95;88.96;103206.44;4863841;28;24419;-64
2023/12/16 09:27:30;;;;;;;10.20;5.60;;;7.60;99.90;;;8.01;88.61;103204.56;4851140;28;24522;-64
2023/12/16 09:29:52;;;;;;;10.20;6.13;;;7.70;99.90;;;8.04;88.54;103203.66;4855590;28;24520;-64
2023/12/16 09:32:15;;;;;;;10.50;6.20;;;7.80;99.90;;;8.06;88.14;103215.75;4868582;28;20873;-67
2023/12/16 09:34:36;;;;;;;9.18;6.20;;;7.80;99.90;;;8.02;88.22;103208.03;4870901;28;24449;-65
2023/12/16 09:36:58;;;;;;;8.90;6.18;;;7.70;99.90;;;8.09;88.48;103210.44;4873285;28;24427;-68
2023/12/16 09:39:22;;;;;;;9.73;6.00;;;7.70;99.90;;;8.16;88.36;103211.19;4871591;28;24508;-68
2023/12/16 09:41:44;;;;;;;10.20;6.30;;;7.80;99.90;;;8.17;88.29;103212.91;4873428;28;24446;-68
2023/12/16 09:44:08;;;;;;;11.60;6.80;;;7.80;99.90;;;8.22;87.88;103213.69;4873847;28;24442;-67
2023/12/16 09:46:33;;;;;;;10.05;5.95;;;7.90;99.90;;;8.26;87.94;103221.38;4871389;28;25084;-67
2023/12/16 09:48:55;;;;;;;13.27;6.72;;;7.90;99.90;;;8.31;87.67;103219.56;4871445;28;24466;-65
2023/12/16 09:51:17;;;;;;;9.95;6.30;;;8.00;99.90;;;8.34;86.86;103218.63;4851243;28;24501;-65
2023/12/16 09:53:39;;;;;;;11.90;6.20;;;8.00;99.90;;;8.36;86.51;103224.66;4865230;28;24531;-67